sensor_id;sensor_type;location;lat;lon;timestamp;pressure;altitude;pressure_sealevel;temperature
71564;BMP180;59391;52.504;13.438;2022-11-20T00:01:19;100749.00;;;4.60
71564;BMP180;59391;52.504;13.438;2022-11-20T00:03:46;100740.00;;;4.60
71564;BMP180;59391;52.504;13.438;2022-11-20T00:06:18;100745.00;;;4.50
71564;BMP180;59391;52.504;13.438;2022-11-20T00:08:45;100740.00;;;4.60
71564;BMP180;59391;52.504;13.438;2022-11-20T00:11:19;100744.00;;;4.50
71564;BMP180;59391;52.504;13.438;2022-11-20T00:13:48;100745.00;;;4.60
71564;BMP180;59391;52.504;13.438;2022-11-20T00:16:19;100736.00;;;4.40
71564;BMP180;59391;52.504;13.438;2022-11-20T00:18:49;100714.00;;;4.50
71564;BMP180;59391;52.504;13.438;2022-11-20T00:21:21;100697.00;;;4.40
71564;BMP180;59391;52.504;13.438;2022-11-20T00:23:48;100709.00;;;4.40
71564;BMP180;59391;52.504;13.438;2022-11-20T00:26:18;100739.00;;;4.40
71564;BMP180;59391;52.504;13.438;2022-11-20T00:28:49;100746.00;;;4.30
71564;BMP180;59391;52.504;13.438;2022-11-20T00:31:16;100751.00;;;4.40
71564;BMP180;59391;52.504;13.438;2022-11-20T00:33:43;100742.00;;;4.40
71564;BMP180;59391;52.504;13.438;2022-11-20T00:36:16;100711.00;;;4.40
71564;BMP180;59391;52.504;13.438;2022-11-20T00:38:43;100720.00;;;4.40
71564;BMP180;59391;52.504;13.438;2022-11-20T00:41:13;100749.00;;;4.40
71564;BMP180;59391;52.504;13.438;2022-11-20T00:43:39;100757.00;;;4.50
71564;BMP180;59391;52.504;13.438;2022-11-20T00:46:09;100701.00;;;4.50
71564;BMP180;59391;52.504;13.438;2022-11-20T00:48:36;100761.00;;;4.40
71564;BMP180;59391;52.504;13.438;2022-11-20T00:51:02;100731.00;;;4.50
71564;BMP180;59391;52.504;13.438;2022-11-20T00:53:28;100666.00;;;4.50
71564;BMP180;59391;52.504;13.438;2022-11-20T00:58:25;100751.00;;;4.50
71564;BMP180;59391;52.504;13.438;2022-11-20T01:00:51;100733.00;;;4.50
71564;BMP180;59391;52.504;13.438;2022-11-20T01:03:18;100653.00;;;4.50
71564;BMP180;59391;52.504;13.438;2022-11-20T01:05:43;100745.00;;;4.50
71564;BMP180;59391;52.504;13.438;2022-11-20T01:08:09;100710.00;;;4.60
71564;BMP180;59391;52.504;13.438;2022-11-20T01:10:35;100686.00;;;4.60
71564;BMP180;59391;52.504;13.438;2022-11-20T01:13:00;100753.00;;;4.60
71564;BMP180;59391;52.504;13.438;2022-11-20T01:15:45;100738.00;;;4.60
71564;BMP180;59391;52.504;13.438;2022-11-20T01:18:10;100716.00;;;4.50
71564;BMP180;59391;52.504;13.438;2022-11-20T01:20:36;100747.00;;;4.60
71564;BMP180;59391;52.504;13.438;2022-11-20T01:23:03;100739.00;;;4.60
71564;BMP180;59391;52.504;13.438;2022-11-20T01:25:29;100745.00;;;4.60
71564;BMP180;59391;52.504;13.438;2022-11-20T01:27:55;100665.00;;;4.60
71564;BMP180;59391;52.504;13.438;2022-11-20T01:30:20;100692.00;;;4.60
71564;BMP180;59391;52.504;13.438;2022-11-20T01:32:46;100698.00;;;4.60
71564;BMP180;59391;52.504;13.438;2022-11-20T01:35:12;100691.00;;;4.60
71564;BMP180;59391;52.504;13.438;2022-11-20T01:37:37;100732.00;;;4.60
71564;BMP180;59391;52.504;13.438;2022-11-20T01:40:04;100692.00;;;4.60
71564;BMP180;59391;52.504;13.438;2022-11-20T01:42:30;100686.00;;;4.50
71564;BMP180;59391;52.504;13.438;2022-11-20T01:45:56;100727.00;;;4.50
71564;BMP180;59391;52.504;13.438;2022-11-20T01:48:36;100737.00;;;4.50
71564;BMP180;59391;52.504;13.438;2022-11-20T01:51:07;100665.00;;;4.50
71564;BMP180;59391;52.504;13.438;2022-11-20T01:53:36;100694.00;;;4.50
71564;BMP180;59391;52.504;13.438;2022-11-20T01:56:10;100719.00;;;4.50
71564;BMP180;59391;52.504;13.438;2022-11-20T01:58:43;100722.00;;;4.60
71564;BMP180;59391;52.504;13.438;2022-11-20T02:01:12;100710.00;;;4.60
71564;BMP180;59391;52.504;13.438;2022-11-20T02:03:39;100705.00;;;4.50
71564;BMP180;59391;52.504;13.438;2022-11-20T02:06:19;100695.00;;;4.50
71564;BMP180;59391;52.504;13.438;2022-11-20T02:08:47;100727.00;;;4.50
71564;BMP180;59391;52.504;13.438;2022-11-20T02:11:16;100685.00;;;4.40
71564;BMP180;59391;52.504;13.438;2022-11-20T02:13:42;100706.00;;;4.30
71564;BMP180;59391;52.504;13.438;2022-11-20T02:16:27;100628.00;;;4.40
71564;BMP180;59391;52.504;13.438;2022-11-20T02:19:00;100718.00;;;4.20
71564;BMP180;59391;52.504;13.438;2022-11-20T02:21:50;100695.00;;;4.30
71564;BMP180;59391;52.504;13.438;2022-11-20T02:24:22;100619.00;;;4.30
71564;BMP180;59391;52.504;13.438;2022-11-20T02:27:07;100671.00;;;4.20
71564;BMP180;59391;52.504;13.438;2022-11-20T02:29:54;100714.00;;;4.20
71564;BMP180;59391;52.504;13.438;2022-11-20T02:32:41;100716.00;;;4.10
71564;BMP180;59391;52.504;13.438;2022-11-20T02:35:10;100724.00;;;4.10
71564;BMP180;59391;52.504;13.438;2022-11-20T02:37:58;100708.00;;;4.20
71564;BMP180;59391;52.504;13.438;2022-11-20T02:40:28;100708.00;;;4.20
71564;BMP180;59391;52.504;13.438;2022-11-20T02:42:56;100684.00;;;4.10
71564;BMP180;59391;52.504;13.438;2022-11-20T02:45:23;100696.00;;;4.10
71564;BMP180;59391;52.504;13.438;2022-11-20T02:47:50;100717.00;;;4.10
71564;BMP180;59391;52.504;13.438;2022-11-20T02:50:16;100708.00;;;4.20
71564;BMP180;59391;52.504;13.438;2022-11-20T02:52:42;100709.00;;;4.20
71564;BMP180;59391;52.504;13.438;2022-11-20T02:55:08;100710.00;;;4.10
71564;BMP180;59391;52.504;13.438;2022-11-20T02:57:34;100640.00;;;4.20
71564;BMP180;59391;52.504;13.438;2022-11-20T02:59:59;100650.00;;;3.90
71564;BMP180;59391;52.504;13.438;2022-11-20T03:02:25;100669.00;;;4.20
71564;BMP180;59391;52.504;13.438;2022-11-20T03:04:50;100703.00;;;4.20
71564;BMP180;59391;52.504;13.438;2022-11-20T03:07:16;100704.00;;;4.20
71564;BMP180;59391;52.504;13.438;2022-11-20T03:09:42;100653.00;;;4.20
71564;BMP180;59391;52.504;13.438;2022-11-20T03:12:08;100689.00;;;4.20
71564;BMP180;59391;52.504;13.438;2022-11-20T03:14:34;100632.00;;;4.20
71564;BMP180;59391;52.504;13.438;2022-11-20T03:17:00;100655.00;;;4.20
71564;BMP180;59391;52.504;13.438;2022-11-20T03:19:25;100600.00;;;4.20
71564;BMP180;59391;52.504;13.438;2022-11-20T03:21:51;100694.00;;;4.20
71564;BMP180;59391;52.504;13.438;2022-11-20T03:24:17;100644.00;;;4.20
71564;BMP180;59391;52.504;13.438;2022-11-20T03:26:45;100622.00;;;4.20
71564;BMP180;59391;52.504;13.438;2022-11-20T03:29:11;100689.00;;;4.10
71564;BMP180;59391;52.504;13.438;2022-11-20T03:31:39;100668.00;;;4.30
71564;BMP180;59391;52.504;13.438;2022-11-20T03:34:07;100677.00;;;4.20
71564;BMP180;59391;52.504;13.438;2022-11-20T03:36:33;100669.00;;;4.30
71564;BMP180;59391;52.504;13.438;2022-11-20T03:39:00;100678.00;;;4.30
71564;BMP180;59391;52.504;13.438;2022-11-20T03:41:29;100671.00;;;4.30
71564;BMP180;59391;52.504;13.438;2022-11-20T03:43:59;100673.00;;;4.30
71564;BMP180;59391;52.504;13.438;2022-11-20T03:46:26;100683.00;;;4.40
71564;BMP180;59391;52.504;13.438;2022-11-20T03:48:53;100673.00;;;4.40
71564;BMP180;59391;52.504;13.438;2022-11-20T03:51:28;100682.00;;;4.50
71564;BMP180;59391;52.504;13.438;2022-11-20T03:56:32;100668.00;;;4.30
71564;BMP180;59391;52.504;13.438;2022-11-20T03:58:58;100674.00;;;4.40
71564;BMP180;59391;52.504;13.438;2022-11-20T04:01:28;100643.00;;;4.40
71564;BMP180;59391;52.504;13.438;2022-11-20T04:03:56;100657.00;;;4.40
71564;BMP180;59391;52.504;13.438;2022-11-20T04:06:34;100672.00;;;4.40
71564;BMP180;59391;52.504;13.438;2022-11-20T04:09:00;100664.00;;;4.40
71564;BMP180;59391;52.504;13.438;2022-11-20T04:11:31;100667.00;;;4.40
71564;BMP180;59391;52.504;13.438;2022-11-20T04:14:01;100664.00;;;4.40
71564;BMP180;59391;52.504;13.438;2022-11-20T04:16:30;100628.00;;;4.30
71564;BMP180;59391;52.504;13.438;2022-11-20T04:18:58;100673.00;;;4.40
71564;BMP180;59391;52.504;13.438;2022-11-20T04:21:27;100653.00;;;4.30
71564;BMP180;59391;52.504;13.438;2022-11-20T04:24:02;100638.00;;;4.20
71564;BMP180;59391;52.504;13.438;2022-11-20T04:26:30;100646.00;;;4.20
71564;BMP180;59391;52.504;13.438;2022-11-20T04:28:57;100669.00;;;4.10
71564;BMP180;59391;52.504;13.438;2022-11-20T04:31:31;100673.00;;;4.20
71564;BMP180;59391;52.504;13.438;2022-11-20T04:34:02;100683.00;;;4.20
71564;BMP180;59391;52.504;13.438;2022-11-20T04:36:29;100619.00;;;4.20
71564;BMP180;59391;52.504;13.438;2022-11-20T04:38:58;100622.00;;;4.20
71564;BMP180;59391;52.504;13.438;2022-11-20T04:41:31;100622.00;;;4.20
71564;BMP180;59391;52.504;13.438;2022-11-20T04:44:06;100623.00;;;4.20
71564;BMP180;59391;52.504;13.438;2022-11-20T04:46:35;100632.00;;;4.20
71564;BMP180;59391;52.504;13.438;2022-11-20T04:49:01;100661.00;;;4.20
71564;BMP180;59391;52.504;13.438;2022-11-20T04:51:27;100663.00;;;4.10
71564;BMP180;59391;52.504;13.438;2022-11-20T04:53:53;100657.00;;;4.20
71564;BMP180;59391;52.504;13.438;2022-11-20T04:56:19;100684.00;;;4.20
71564;BMP180;59391;52.504;13.438;2022-11-20T04:58:45;100664.00;;;4.20
71564;BMP180;59391;52.504;13.438;2022-11-20T05:01:23;100652.00;;;4.20
71564;BMP180;59391;52.504;13.438;2022-11-20T05:03:50;100657.00;;;4.10
71564;BMP180;59391;52.504;13.438;2022-11-20T05:06:22;100615.00;;;4.20
71564;BMP180;59391;52.504;13.438;2022-11-20T05:08:48;100623.00;;;4.20
71564;BMP180;59391;52.504;13.438;2022-11-20T05:11:20;100609.00;;;4.10
71564;BMP180;59391;52.504;13.438;2022-11-20T05:13:47;100593.00;;;4.10
71564;BMP180;59391;52.504;13.438;2022-11-20T05:16:24;100635.00;;;4.20
71564;BMP180;59391;52.504;13.438;2022-11-20T05:19:06;100557.00;;;4.20
71564;BMP180;59391;52.504;13.438;2022-11-20T05:22:01;100575.00;;;4.10
71564;BMP180;59391;52.504;13.438;2022-11-20T05:24:26;100634.00;;;4.20
71564;BMP180;59391;52.504;13.438;2022-11-20T05:26:52;100502.00;;;4.20
71564;BMP180;59391;52.504;13.438;2022-11-20T05:29:18;100634.00;;;4.20
71564;BMP180;59391;52.504;13.438;2022-11-20T05:31:43;100637.00;;;4.20
71564;BMP180;59391;52.504;13.438;2022-11-20T05:34:09;100603.00;;;4.20
71564;BMP180;59391;52.504;13.438;2022-11-20T05:36:35;100629.00;;;4.20
71564;BMP180;59391;52.504;13.438;2022-11-20T05:39:00;100579.00;;;4.10
71564;BMP180;59391;52.504;13.438;2022-11-20T05:41:41;100627.00;;;4.20
71564;BMP180;59391;52.504;13.438;2022-11-20T05:44:06;100541.00;;;4.20
71564;BMP180;59391;52.504;13.438;2022-11-20T05:46:35;100644.00;;;4.20
71564;BMP180;59391;52.504;13.438;2022-11-20T05:49:00;100527.00;;;4.30
71564;BMP180;59391;52.504;13.438;2022-11-20T05:51:27;100631.00;;;4.30
71564;BMP180;59391;52.504;13.438;2022-11-20T05:53:53;100624.00;;;4.40
71564;BMP180;59391;52.504;13.438;2022-11-20T05:56:21;100610.00;;;4.30
71564;BMP180;59391;52.504;13.438;2022-11-20T05:58:48;100621.00;;;4.40
71564;BMP180;59391;52.504;13.438;2022-11-20T06:03:45;100583.00;;;4.40
71564;BMP180;59391;52.504;13.438;2022-11-20T06:06:17;100627.00;;;4.40
71564;BMP180;59391;52.504;13.438;2022-11-20T06:08:44;100630.00;;;4.40
71564;BMP180;59391;52.504;13.438;2022-11-20T06:11:12;100616.00;;;4.30
71564;BMP180;59391;52.504;13.438;2022-11-20T06:13:38;100619.00;;;4.40
71564;BMP180;59391;52.504;13.438;2022-11-20T06:16:04;100602.00;;;4.40
71564;BMP180;59391;52.504;13.438;2022-11-20T06:18:30;100603.00;;;4.30
71564;BMP180;59391;52.504;13.438;2022-11-20T06:21:06;100602.00;;;4.30
71564;BMP180;59391;52.504;13.438;2022-11-20T06:23:34;100619.00;;;4.30
71564;BMP180;59391;52.504;13.438;2022-11-20T06:26:06;100634.00;;;4.30
71564;BMP180;59391;52.504;13.438;2022-11-20T06:28:32;100617.00;;;4.20
71564;BMP180;59391;52.504;13.438;2022-11-20T06:30:59;100629.00;;;4.30
71564;BMP180;59391;52.504;13.438;2022-11-20T06:33:25;100546.00;;;4.00
71564;BMP180;59391;52.504;13.438;2022-11-20T06:35:51;100621.00;;;4.20
71564;BMP180;59391;52.504;13.438;2022-11-20T06:38:17;100559.00;;;4.30
71564;BMP180;59391;52.504;13.438;2022-11-20T06:40:43;100576.00;;;4.20
71564;BMP180;59391;52.504;13.438;2022-11-20T06:43:12;100634.00;;;4.20
71564;BMP180;59391;52.504;13.438;2022-11-20T06:45:38;100609.00;;;4.10
71564;BMP180;59391;52.504;13.438;2022-11-20T06:48:04;100616.00;;;4.20
71564;BMP180;59391;52.504;13.438;2022-11-20T06:50:30;100611.00;;;4.10
71564;BMP180;59391;52.504;13.438;2022-11-20T06:52:55;100587.00;;;4.10
71564;BMP180;59391;52.504;13.438;2022-11-20T06:55:21;100528.00;;;4.10
71564;BMP180;59391;52.504;13.438;2022-11-20T06:57:47;100517.00;;;3.90
71564;BMP180;59391;52.504;13.438;2022-11-20T07:00:13;100543.00;;;4.10
71564;BMP180;59391;52.504;13.438;2022-11-20T07:02:39;100554.00;;;4.10
71564;BMP180;59391;52.504;13.438;2022-11-20T07:05:05;100599.00;;;4.20
71564;BMP180;59391;52.504;13.438;2022-11-20T07:07:31;100597.00;;;3.90
71564;BMP180;59391;52.504;13.438;2022-11-20T07:09:56;100551.00;;;4.00
71564;BMP180;59391;52.504;13.438;2022-11-20T07:12:22;100596.00;;;4.20
71564;BMP180;59391;52.504;13.438;2022-11-20T07:14:48;100632.00;;;4.20
71564;BMP180;59391;52.504;13.438;2022-11-20T07:17:13;100550.00;;;4.20
71564;BMP180;59391;52.504;13.438;2022-11-20T07:19:39;100612.00;;;4.10
71564;BMP180;59391;52.504;13.438;2022-11-20T07:22:05;100590.00;;;4.20
71564;BMP180;59391;52.504;13.438;2022-11-20T07:24:30;100633.00;;;4.20
71564;BMP180;59391;52.504;13.438;2022-11-20T07:26:56;100580.00;;;4.10
71564;BMP180;59391;52.504;13.438;2022-11-20T07:29:22;100519.00;;;3.90
71564;BMP180;59391;52.504;13.438;2022-11-20T07:31:47;100556.00;;;4.10
71564;BMP180;59391;52.504;13.438;2022-11-20T07:34:13;100572.00;;;4.10
71564;BMP180;59391;52.504;13.438;2022-11-20T07:36:39;100604.00;;;4.10
71564;BMP180;59391;52.504;13.438;2022-11-20T07:39:05;100625.00;;;4.10
71564;BMP180;59391;52.504;13.438;2022-11-20T07:41:31;100623.00;;;4.10
71564;BMP180;59391;52.504;13.438;2022-11-20T07:43:57;100519.00;;;4.00
71564;BMP180;59391;52.504;13.438;2022-11-20T07:46:22;100622.00;;;4.10
71564;BMP180;59391;52.504;13.438;2022-11-20T07:48:48;100605.00;;;4.10
71564;BMP180;59391;52.504;13.438;2022-11-20T07:51:14;100605.00;;;4.10
71564;BMP180;59391;52.504;13.438;2022-11-20T07:53:39;100606.00;;;4.10
71564;BMP180;59391;52.504;13.438;2022-11-20T07:56:05;100596.00;;;4.10
71564;BMP180;59391;52.504;13.438;2022-11-20T07:58:32;100580.00;;;4.00
71564;BMP180;59391;52.504;13.438;2022-11-20T08:01:07;100574.00;;;4.10
71564;BMP180;59391;52.504;13.438;2022-11-20T08:03:35;100579.00;;;4.00
71564;BMP180;59391;52.504;13.438;2022-11-20T08:06:03;100597.00;;;4.10
71564;BMP180;59391;52.504;13.438;2022-11-20T08:08:29;100597.00;;;4.10
71564;BMP180;59391;52.504;13.438;2022-11-20T08:10:58;100611.00;;;4.10
71564;BMP180;59391;52.504;13.438;2022-11-20T08:13:43;100595.00;;;4.10
71564;BMP180;59391;52.504;13.438;2022-11-20T08:18:57;100587.00;;;4.10
71564;BMP180;59391;52.504;13.438;2022-11-20T08:21:23;100548.00;;;4.10
71564;BMP180;59391;52.504;13.438;2022-11-20T08:23:54;100561.00;;;4.20
71564;BMP180;59391;52.504;13.438;2022-11-20T08:26:21;100575.00;;;4.10
71564;BMP180;59391;52.504;13.438;2022-11-20T08:28:58;100564.00;;;4.10
71564;BMP180;59391;52.504;13.438;2022-11-20T08:31:26;100599.00;;;4.10
71564;BMP180;59391;52.504;13.438;2022-11-20T08:33:53;100580.00;;;4.20
71564;BMP180;59391;52.504;13.438;2022-11-20T08:36:23;100545.00;;;4.30
71564;BMP180;59391;52.504;13.438;2022-11-20T08:38:54;100588.00;;;4.20
71564;BMP180;59391;52.504;13.438;2022-11-20T08:41:22;100500.00;;;4.10
71564;BMP180;59391;52.504;13.438;2022-11-20T08:43:57;100576.00;;;4.10
71564;BMP180;59391;52.504;13.438;2022-11-20T08:46:26;100597.00;;;4.20
71564;BMP180;59391;52.504;13.438;2022-11-20T08:48:52;100566.00;;;4.20
71564;BMP180;59391;52.504;13.438;2022-11-20T08:51:19;100581.00;;;4.20
71564;BMP180;59391;52.504;13.438;2022-11-20T08:53:46;100565.00;;;4.20
71564;BMP180;59391;52.504;13.438;2022-11-20T08:56:14;100561.00;;;4.20
71564;BMP180;59391;52.504;13.438;2022-11-20T08:58:43;100574.00;;;4.20
71564;BMP180;59391;52.504;13.438;2022-11-20T09:01:09;100578.00;;;4.30
71564;BMP180;59391;52.504;13.438;2022-11-20T09:03:34;100567.00;;;4.30
71564;BMP180;59391;52.504;13.438;2022-11-20T09:06:04;100580.00;;;4.30
71564;BMP180;59391;52.504;13.438;2022-11-20T09:08:30;100568.00;;;4.40
71564;BMP180;59391;52.504;13.438;2022-11-20T09:10:57;100574.00;;;4.50
71564;BMP180;59391;52.504;13.438;2022-11-20T09:13:25;100581.00;;;4.50
71564;BMP180;59391;52.504;13.438;2022-11-20T09:15:57;100587.00;;;4.50
71564;BMP180;59391;52.504;13.438;2022-11-20T09:18:28;100581.00;;;4.60
71564;BMP180;59391;52.504;13.438;2022-11-20T09:21:09;100571.00;;;4.50
71564;BMP180;59391;52.504;13.438;2022-11-20T09:23:37;100548.00;;;4.60
71564;BMP180;59391;52.504;13.438;2022-11-20T09:26:10;100602.00;;;4.50
71564;BMP180;59391;52.504;13.438;2022-11-20T09:28:37;100583.00;;;4.60
71564;BMP180;59391;52.504;13.438;2022-11-20T09:31:08;100579.00;;;4.60
71564;BMP180;59391;52.504;13.438;2022-11-20T09:33:35;100548.00;;;4.50
71564;BMP180;59391;52.504;13.438;2022-11-20T09:36:01;100592.00;;;4.50
71564;BMP180;59391;52.504;13.438;2022-11-20T09:38:26;100569.00;;;4.60
71564;BMP180;59391;52.504;13.438;2022-11-20T09:41:02;100561.00;;;4.60
71564;BMP180;59391;52.504;13.438;2022-11-20T09:43:57;100593.00;;;4.50
71564;BMP180;59391;52.504;13.438;2022-11-20T09:47:00;100577.00;;;4.50
71564;BMP180;59391;52.504;13.438;2022-11-20T09:52:44;100571.00;;;4.60
71564;BMP180;59391;52.504;13.438;2022-11-20T09:55:14;100566.00;;;4.70
71564;BMP180;59391;52.504;13.438;2022-11-20T09:57:45;100558.00;;;4.60
71564;BMP180;59391;52.504;13.438;2022-11-20T10:00:14;100560.00;;;4.70
71564;BMP180;59391;52.504;13.438;2022-11-20T10:03:14;100583.00;;;4.70
71564;BMP180;59391;52.504;13.438;2022-11-20T10:05:53;100557.00;;;4.70
71564;BMP180;59391;52.504;13.438;2022-11-20T10:08:28;100552.00;;;4.70
71564;BMP180;59391;52.504;13.438;2022-11-20T10:11:36;100541.00;;;4.70
71564;BMP180;59391;52.504;13.438;2022-11-20T10:20:14;100556.00;;;4.70
71564;BMP180;59391;52.504;13.438;2022-11-20T10:25:53;100534.00;;;4.70
71564;BMP180;59391;52.504;13.438;2022-11-20T10:28:30;100555.00;;;4.70
71564;BMP180;59391;52.504;13.438;2022-11-20T10:31:06;100556.00;;;4.80
71564;BMP180;59391;52.504;13.438;2022-11-20T10:33:39;100553.00;;;4.80
71564;BMP180;59391;52.504;13.438;2022-11-20T10:36:23;100520.00;;;4.80
71564;BMP180;59391;52.504;13.438;2022-11-20T10:39:04;100541.00;;;4.90
71564;BMP180;59391;52.504;13.438;2022-11-20T10:41:40;100533.00;;;4.90
71564;BMP180;59391;52.504;13.438;2022-11-20T10:44:15;100524.00;;;4.80
71564;BMP180;59391;52.504;13.438;2022-11-20T10:47:00;100539.00;;;4.80
71564;BMP180;59391;52.504;13.438;2022-11-20T10:49:26;100516.00;;;4.80
71564;BMP180;59391;52.504;13.438;2022-11-20T10:55:05;100507.00;;;4.80
71564;BMP180;59391;52.504;13.438;2022-11-20T11:00:31;100521.00;;;4.70
71564;BMP180;59391;52.504;13.438;2022-11-20T11:02:59;100513.00;;;4.80
71564;BMP180;59391;52.504;13.438;2022-11-20T11:05:50;100518.00;;;4.80
71564;BMP180;59391;52.504;13.438;2022-11-20T11:08:19;100513.00;;;4.90
71564;BMP180;59391;52.504;13.438;2022-11-20T11:10:56;100534.00;;;4.90
71564;BMP180;59391;52.504;13.438;2022-11-20T11:13:26;100531.00;;;5.00
71564;BMP180;59391;52.504;13.438;2022-11-20T11:15:53;100540.00;;;5.10
71564;BMP180;59391;52.504;13.438;2022-11-20T11:18:30;100523.00;;;5.20
71564;BMP180;59391;52.504;13.438;2022-11-20T11:21:00;100495.00;;;5.20
71564;BMP180;59391;52.504;13.438;2022-11-20T11:23:41;100534.00;;;5.30
71564;BMP180;59391;52.504;13.438;2022-11-20T11:26:22;100527.00;;;5.40
71564;BMP180;59391;52.504;13.438;2022-11-20T11:29:00;100511.00;;;5.50
71564;BMP180;59391;52.504;13.438;2022-11-20T11:31:29;100502.00;;;5.40
71564;BMP180;59391;52.504;13.438;2022-11-20T11:34:12;100525.00;;;5.40
71564;BMP180;59391;52.504;13.438;2022-11-20T11:36:39;100511.00;;;5.40
71564;BMP180;59391;52.504;13.438;2022-11-20T11:39:17;100499.00;;;5.50
71564;BMP180;59391;52.504;13.438;2022-11-20T11:41:44;100508.00;;;5.50
71564;BMP180;59391;52.504;13.438;2022-11-20T11:44:24;100505.00;;;5.60
71564;BMP180;59391;52.504;13.438;2022-11-20T11:47:38;100481.00;;;5.60
71564;BMP180;59391;52.504;13.438;2022-11-20T11:53:13;100497.00;;;5.40
71564;BMP180;59391;52.504;13.438;2022-11-20T11:56:07;100502.00;;;5.40
71564;BMP180;59391;52.504;13.438;2022-11-20T11:58:50;100497.00;;;5.40
71564;BMP180;59391;52.504;13.438;2022-11-20T12:07:15;100496.00;;;5.30
71564;BMP180;59391;52.504;13.438;2022-11-20T12:09:52;100486.00;;;5.30
71564;BMP180;59391;52.504;13.438;2022-11-20T12:12:32;100495.00;;;5.20
71564;BMP180;59391;52.504;13.438;2022-11-20T12:15:02;100495.00;;;5.20
71564;BMP180;59391;52.504;13.438;2022-11-20T12:17:28;100479.00;;;5.20
71564;BMP180;59391;52.504;13.438;2022-11-20T12:19:53;100487.00;;;5.20
71564;BMP180;59391;52.504;13.438;2022-11-20T12:22:43;100490.00;;;5.20
71564;BMP180;59391;52.504;13.438;2022-11-20T12:25:20;100471.00;;;5.20
71564;BMP180;59391;52.504;13.438;2022-11-20T12:31:02;100471.00;;;5.10
71564;BMP180;59391;52.504;13.438;2022-11-20T12:36:44;100484.00;;;5.20
71564;BMP180;59391;52.504;13.438;2022-11-20T12:39:35;100480.00;;;5.30
71564;BMP180;59391;52.504;13.438;2022-11-20T12:42:30;100476.00;;;5.40
71564;BMP180;59391;52.504;13.438;2022-11-20T12:45:46;100466.00;;;5.50
71564;BMP180;59391;52.504;13.438;2022-11-20T12:48:33;100456.00;;;5.50
71564;BMP180;59391;52.504;13.438;2022-11-20T12:54:29;100453.00;;;5.50
71564;BMP180;59391;52.504;13.438;2022-11-20T13:00:17;100456.00;;;5.50
71564;BMP180;59391;52.504;13.438;2022-11-20T13:06:15;100445.00;;;5.50
71564;BMP180;59391;52.504;13.438;2022-11-20T13:08:54;100454.00;;;5.80
71564;BMP180;59391;52.504;13.438;2022-11-20T13:11:33;100420.00;;;5.60
71564;BMP180;59391;52.504;13.438;2022-11-20T13:14:25;100433.00;;;5.70
71564;BMP180;59391;52.504;13.438;2022-11-20T13:17:10;100448.00;;;5.90
71564;BMP180;59391;52.504;13.438;2022-11-20T13:19:37;100448.00;;;5.90
71564;BMP180;59391;52.504;13.438;2022-11-20T13:22:03;100429.00;;;6.00
71564;BMP180;59391;52.504;13.438;2022-11-20T13:24:31;100442.00;;;6.00
71564;BMP180;59391;52.504;13.438;2022-11-20T13:27:18;100426.00;;;5.80
71564;BMP180;59391;52.504;13.438;2022-11-20T13:29:59;100448.00;;;6.00
71564;BMP180;59391;52.504;13.438;2022-11-20T13:32:27;100430.00;;;6.00
71564;BMP180;59391;52.504;13.438;2022-11-20T13:35:03;100431.00;;;6.00
71564;BMP180;59391;52.504;13.438;2022-11-20T13:37:36;100440.00;;;6.10
71564;BMP180;59391;52.504;13.438;2022-11-20T13:45:27;100434.00;;;6.30
71564;BMP180;59391;52.504;13.438;2022-11-20T13:47:55;100421.00;;;6.30
71564;BMP180;59391;52.504;13.438;2022-11-20T13:50:40;100424.00;;;6.40
71564;BMP180;59391;52.504;13.438;2022-11-20T13:53:57;100418.00;;;6.50
71564;BMP180;59391;52.504;13.438;2022-11-20T13:57:04;100433.00;;;6.40
71564;BMP180;59391;52.504;13.438;2022-11-20T14:02:28;100426.00;;;6.20
71564;BMP180;59391;52.504;13.438;2022-11-20T14:04:58;100434.00;;;6.10
71564;BMP180;59391;52.504;13.438;2022-11-20T14:07:42;100426.00;;;6.10
71564;BMP180;59391;52.504;13.438;2022-11-20T14:10:29;100433.00;;;6.10
71564;BMP180;59391;52.504;13.438;2022-11-20T14:12:55;100429.00;;;6.10
71564;BMP180;59391;52.504;13.438;2022-11-20T14:15:30;100428.00;;;6.10
71564;BMP180;59391;52.504;13.438;2022-11-20T14:17:58;100430.00;;;6.10
71564;BMP180;59391;52.504;13.438;2022-11-20T14:20:29;100433.00;;;6.10
71564;BMP180;59391;52.504;13.438;2022-11-20T14:22:56;100442.00;;;6.10
71564;BMP180;59391;52.504;13.438;2022-11-20T14:25:24;100437.00;;;6.10
71564;BMP180;59391;52.504;13.438;2022-11-20T14:28:00;100429.00;;;6.10
71564;BMP180;59391;52.504;13.438;2022-11-20T14:30:45;100445.00;;;6.10
71564;BMP180;59391;52.504;13.438;2022-11-20T14:33:13;100447.00;;;6.20
71564;BMP180;59391;52.504;13.438;2022-11-20T14:35:51;100438.00;;;6.10
71564;BMP180;59391;52.504;13.438;2022-11-20T14:38:24;100441.00;;;6.10
71564;BMP180;59391;52.504;13.438;2022-11-20T14:40:50;100441.00;;;6.10
71564;BMP180;59391;52.504;13.438;2022-11-20T14:43:28;100441.00;;;6.10
71564;BMP180;59391;52.504;13.438;2022-11-20T14:46:04;100435.00;;;6.10
71564;BMP180;59391;52.504;13.438;2022-11-20T14:48:48;100439.00;;;6.10
71564;BMP180;59391;52.504;13.438;2022-11-20T14:51:37;100433.00;;;6.10
71564;BMP180;59391;52.504;13.438;2022-11-20T14:54:15;100431.00;;;6.00
71564;BMP180;59391;52.504;13.438;2022-11-20T14:56:53;100428.00;;;6.00
71564;BMP180;59391;52.504;13.438;2022-11-20T14:59:27;100441.00;;;6.00
71564;BMP180;59391;52.504;13.438;2022-11-20T15:02:02;100434.00;;;6.00
71564;BMP180;59391;52.504;13.438;2022-11-20T15:04:28;100423.00;;;5.90
71564;BMP180;59391;52.504;13.438;2022-11-20T15:06:56;100428.00;;;5.90
71564;BMP180;59391;52.504;13.438;2022-11-20T15:09:22;100425.00;;;5.90
71564;BMP180;59391;52.504;13.438;2022-11-20T15:12:01;100431.00;;;5.80
71564;BMP180;59391;52.504;13.438;2022-11-20T15:14:28;100421.00;;;5.80
71564;BMP180;59391;52.504;13.438;2022-11-20T15:16:56;100420.00;;;5.80
71564;BMP180;59391;52.504;13.438;2022-11-20T15:19:26;100424.00;;;5.80
71564;BMP180;59391;52.504;13.438;2022-11-20T15:21:52;100407.00;;;5.80
71564;BMP180;59391;52.504;13.438;2022-11-20T15:24:18;100408.00;;;5.80